Aviation Digital Data Service (ADDS)

Output produced by METARs form (1242 UTC 22 February 2018)
found at http://www.aviationweather.gov/adds/metars/
 
EBBE 221225Z 05014KT 9999 FEW025 04/M06 Q1022 BLU BLU
TAF EBBE 221143Z 2213/2222 06014KT 9999 FEW025
       
EBBR 221220Z 06013KT CAVOK 03/M06 Q1022 NOSIG
TAF EBBR 221101Z 2212/2318 06010KT CAVOK 
     PROB30 
     TEMPO 2212/2216 06015G25KT
       
EBCI 221220Z 06016KT CAVOK 02/M06 Q1021 NOSIG
TAF EBCI 221101Z 2212/2318 06010KT CAVOK 
     PROB30 
     TEMPO 2212/2216 06015G25KT 
     PROB30 
     TEMPO 2304/2307 4500 BR
       
EBCV 221225Z AUTO 07014KT 9999 NCD 04/M06 Q1022 BLU
TAF EBCV 221141Z 2213/2222 07012KT 9999 SKC 
     TEMPO 2213/2218 FEW040 BY EBWM
       
EBAW 221220Z 08014KT CAVOK 05/M07 Q1023 TEMPO 08015G25KT
TAF EBAW 221101Z 2212/2221 07010KT CAVOK 
     PROB30 
     TEMPO 2212/2216 07015G25KT
       
EBFS 221225Z 05015KT 9999 FEW024 02/M08 Q1019 BLU BLU
TAF EBFS 221141Z 2213/2222 06015G25KT 9999 SKC 
     TEMPO 2213/2218 FEW025
       
EBBL 221225Z 05013KT 9999 FEW023 04/M06 Q1023 BLU BLU
TAF EBBL 221141Z 2213/2222 06012G25KT 9999 SCT035 
     BECMG 2216/2218 05010KT
       
EBFN 221225Z 07012KT 9999 SKC 05/M03 Q1023 BLU BLU TEMPO WHT
TAF EBFN 221141Z 2213/2222 06012KT 9000 SKC 
     PROB40 
     TEMPO 2213/2222 6000 
     PROB40 
     TEMPO 2216/2222 SCT025
       
EBLG 221220Z 06016KT CAVOK 02/M07 Q1021 NOSIG
TAF EBLG 221101Z 2212/2318 07010KT CAVOK 
     PROB30 
     TEMPO 2212/2216 07015G25KT
       
EBOS 221220Z 06013KT CAVOK 03/M05 Q1024 TEMPO 08015G25KT
TAF EBOS 221101Z 2212/2318 07012KT CAVOK 
     PROB30 
     TEMPO 2212/2216 07015G25KT